Latest Weather Observations for Cerberus

IDV60801

Issued at 7:02 am EDT Monday 26 January 2015 (issued every 30 minutes, with the page automatically refreshed every 10 minutes)

About weather observations | Map of weather stations | Latest weather observations for VIC | Other Formats
Station Details ID: 086361 Name: CERBERUS Lat: -38.36 Lon: 145.18 Height: 12.69 m
Data from the previous 72 hours. | See also: Recent months at Cerberus
Date/Time
EDT
Temp
°C
App
Temp
°C
Dew
Point
Rel
Hum
%
Delta-T
°C
Wind Press
QNH
hPa
Press
MSL
hPa
Rain
since 9 am
mm
Dir
 
Spd
km/h
Gust
km/h
Spd
kts
Gust
kts
26/07:00am 10.2 9.6 7.4 83 1.3 CALM 0 0 0 0 1015.2 1015.1 0.2
26/06:30am 10.3 8.9 7.2 81 1.5 WNW 4 4 2 2 1015.1 1015.0 0.2
26/06:00am 11.2 10.0 7.9 80 1.6 WNW 4 4 2 2 1014.6 1014.5 0.2
26/05:30am 11.9 10.8 8.6 80 1.6 WNW 4 7 2 4 1014.2 1014.1 0.2
26/05:00am 11.8 10.8 8.8 82 1.5 W 4 4 2 2 1014.0 1013.9 0.2
26/04:30am 12.0 11.4 9.0 82 1.5 W 2 4 1 2 1013.8 1013.7 0.2
26/04:00am 11.2 9.7 8.4 83 1.4 WNW 6 7 3 4 1013.7 1013.6 0.2
26/03:30am 10.6 9.3 7.8 83 1.4 W 4 7 2 4 1013.6 1013.5 0.2
26/03:00am 10.5 9.1 7.4 81 1.5 W 4 6 2 3 1013.3 1013.3 0.2
26/02:30am 11.1 9.5 7.8 80 1.6 WNW 6 7 3 4 1013.3 1013.3 0.2
26/02:00am 11.5 9.9 7.8 78 1.8 W 6 9 3 5 1013.3 1013.3 0.2
26/01:30am 11.8 9.7 8.3 79 1.7 WNW 9 11 5 6 1013.3 1013.3 0.0
26/01:00am 12.0 9.9 8.3 78 1.8 WNW 9 15 5 8 1013.3 1013.3 0.0
26/12:30am 12.8 10.8 7.0 68 2.8 WNW 7 11 4 6 1013.3 1013.3 0.0
26/12:00am 12.4 10.3 6.7 68 2.7 W 7 11 4 6 1013.2 1013.2 0.0
 
Date/Time
EDT
Temp
°C
App
Temp
°C
Dew
Point
Rel
Hum
%
Delta-T
°C
Wind Press
QNH
hPa
Press
MSL
hPa
Rain
since 9 am
mm
Dir
 
Spd
km/h
Gust
km/h
Spd
kts
Gust
kts
25/11:30pm 12.4 10.4 6.2 66 2.9 W 6 7 3 4 1013.1 1013.1 0.0
25/11:00pm 12.9 10.8 6.0 63 3.3 W 6 9 3 5 1013.2 1013.2 0.0
25/10:30pm 12.6 10.3 5.8 63 3.2 W 7 9 4 5 1013.2 1013.2 0.0
25/10:00pm 13.2 10.1 5.6 60 3.6 WSW 11 15 6 8 1013.0 1013.0 0.0
25/09:30pm 13.9 10.1 5.8 58 3.8 WSW 15 20 8 11 1012.7 1012.7 0.0
25/09:00pm 14.2 10.7 7.0 62 3.5 WSW 15 22 8 12 1012.3 1012.3 0.0
25/08:30pm 14.9 10.4 6.0 55 4.3 SW 19 28 10 15 1011.8 1011.8 0.0
25/08:00pm 15.4 10.6 7.2 58 4.0 SW 22 37 12 20 1011.6 1011.6 0.0
25/07:30pm 16.3 11.3 6.4 52 4.8 SW 22 32 12 17 1011.2 1011.2 0.0
25/07:00pm 16.9 11.4 5.8 48 5.4 WSW 24 35 13 19 1010.9 1010.9 0.0
25/06:30pm 17.0 10.2 5.3 46 5.6 SW 30 46 16 25 1010.4 1010.4 0.0
25/06:00pm 17.9 12.7 8.7 55 4.8 SW 26 39 14 21 1010.3 1010.3 0.0
25/05:30pm 16.1 9.5 7.8 58 4.2 SW 32 46 17 25 1010.1 1010.1 0.0
25/05:00pm 17.4 12.0 8.0 54 4.8 WSW 26 37 14 20 1009.7 1009.7 0.0
25/04:30pm 17.2 10.9 9.1 59 4.2 SW 32 46 17 25 1009.4 1009.4 0.0
25/04:00pm 18.7 13.1 8.7 52 5.2 SW 28 44 15 24 1009.1 1009.1 0.0
25/03:30pm 17.6 13.4 9.8 60 4.1 SW 22 32 12 17 1009.1 1009.1 0.0
25/03:00pm 17.8 13.3 8.4 54 4.8 WSW 22 41 12 22 1008.9 1008.9 0.0
25/02:30pm 18.3 12.9 6.5 46 5.9 W 24 35 13 19 1008.7 1008.7 0.0
25/02:00pm 18.6 13.6 8.0 50 5.4 WSW 24 39 13 21 1008.4 1008.4 0.0
25/01:30pm 19.1 14.7 9.0 52 5.3 WSW 22 33 12 18 1008.2 1008.2 0.0
25/01:00pm 18.3 13.8 10.2 59 4.3 WSW 24 37 13 20 1008.0 1008.0 0.0
25/12:30pm 17.4 12.7 6.0 47 5.6 WSW 20 32 11 17 1008.0 1008.0 0.0
25/12:00pm 18.8 13.5 4.9 40 6.7 W 22 37 12 20 1007.7 1007.7 0.0
25/11:30am 18.2 12.3 5.8 44 6.1 W 26 39 14 21 1007.5 1007.5 0.0
25/11:00am 18.2 13.5 7.6 50 5.4 W 22 33 12 18 1007.4 1007.4 0.0
25/10:30am 17.6 13.7 9.5 59 4.2 W 20 32 11 17 1007.1 1007.1 0.0
25/10:00am 17.1 13.2 9.5 61 4.0 W 20 32 11 17 1006.7 1006.7 0.0
25/09:30am 16.3 13.2 10.2 67 3.2 W 17 30 9 16 1006.4 1006.4 0.0
25/09:00am 15.2 13.1 11.0 76 2.2 WNW 13 24 7 13 1006.4 1006.4 1.0
25/08:30am 14.8 13.1 11.2 79 1.9 W 11 17 6 9 1006.2 1006.2 1.0
25/08:00am 14.4 12.8 11.6 83 1.5 W 11 17 6 9 1005.9 1005.9 1.0
25/07:30am 14.4 13.2 11.7 84 1.4 WSW 9 15 5 8 1005.4 1005.4 1.0
25/07:00am 14.1 13.0 11.8 86 1.2 WSW 9 13 5 7 1004.9 1004.9 1.0
25/06:30am 13.8 12.2 11.7 87 1.1 WSW 11 19 6 10 1004.2 1004.2 1.0
25/06:00am 14.0 12.5 12.0 88 1.1 WSW 11 24 6 13 1003.9 1003.9 1.0
25/05:30am 15.5 12.1 12.4 82 1.7 SW 22 33 12 18 1003.2 1003.2 0.0
25/05:00am 17.7 15.2 13.4 76 2.4 WNW 19 35 10 19 1002.3 1002.3 0.0
25/04:30am 16.0 15.7 12.7 81 1.8 N 6 9 3 5 1002.1 1002.1 0.0
25/04:00am 15.8 16.0 12.9 83 1.6 N 4 6 2 3 1002.1 1002.1 0.0
25/03:30am 15.9 15.8 13.2 84 1.5 N 6 6 3 3 1001.9 1001.9 0.0
25/03:00am 15.6 15.8 13.1 85 1.4 NNW 4 9 2 5 1002.0 1002.0 0.0
25/02:30am 14.9 15.0 12.8 87 1.2 WNW 4 7 2 4 1001.9 1001.9 0.0
25/02:00am 14.8 14.3 12.7 87 1.2 W 7 7 4 4 1002.4 1002.4 0.0
25/01:30am 13.2 12.7 10.7 85 1.3 SW 4 7 2 4 1002.6 1002.6 0.0
25/01:00am 14.1 13.8 11.4 84 1.4 SSE 4 4 2 2 1002.8 1002.8 0.0
25/12:30am 14.3 14.3 11.1 81 1.7 SSE 2 6 1 3 1003.1 1003.1 0.0
25/12:00am 15.9 16.2 12.3 79 2.0 SSE 2 2 1 1 1003.4 1003.4 0.0
 
Date/Time
EDT
Temp
°C
App
Temp
°C
Dew
Point
Rel
Hum
%
Delta-T
°C
Wind Press
QNH
hPa
Press
MSL
hPa
Rain
since 9 am
mm
Dir
 
Spd
km/h
Gust
km/h
Spd
kts
Gust
kts
24/11:30pm 16.0 15.9 12.2 78 2.1 SSE 4 6 2 3 1003.5 1003.5 0.0
24/11:00pm 16.5 16.2 12.7 78 2.1 S 6 9 3 5 1003.7 1003.7 0.0
24/10:30pm 16.5 16.2 12.7 78 2.1 S 6 9 3 5 1003.9 1003.9 0.0
24/10:00pm 16.8 16.4 13.1 79 2.1 SSE 7 11 4 6 1003.9 1003.9 0.0
24/09:30pm 17.2 17.2 13.7 80 2.0 SSE 6 9 3 5 1003.6 1003.6 0.0
24/09:00pm 17.6 17.3 13.3 76 2.4 SSE 7 9 4 5 1003.4 1003.4 0.0
24/08:30pm 18.4 17.9 13.9 75 2.6 SSE 9 13 5 7 1003.0 1003.0 0.0
24/08:00pm 19.2 18.4 14.0 72 3.0 SSE 11 20 6 11 1002.6 1002.6 0.0
24/07:30pm 19.7 17.9 13.2 66 3.7 SSE 15 22 8 12 1002.5 1002.5 0.0
24/07:00pm 20.2 18.9 13.6 66 3.8 SSE 13 24 7 13 1002.4 1002.4 0.0
24/06:30pm 20.7 18.7 13.9 65 3.9 S 17 26 9 14 1002.0 1002.0 0.0
24/06:00pm 20.9 19.0 14.1 65 4.0 S 17 26 9 14 1002.0 1002.0 0.0
24/05:30pm 21.1 18.9 14.3 65 4.0 SSW 19 28 10 15 1002.1 1002.1 0.0
24/05:00pm 21.6 19.8 14.5 64 4.2 SSW 17 28 9 15 1001.9 1001.9 0.0
24/04:30pm 22.7 21.9 15.0 61 4.6 SSW 13 19 7 10 1002.2 1002.2 0.0
24/04:00pm 22.5 21.7 15.1 63 4.4 S 13 20 7 11 1002.5 1002.5 0.0
24/03:30pm 22.0 21.0 15.6 67 3.8 SSW 15 20 8 11 1002.7 1002.7 0.0
24/03:00pm 22.3 21.1 16.1 68 3.8 SSW 17 24 9 13 1003.1 1003.1 0.0
24/02:30pm 21.8 20.3 15.4 67 3.8 SSW 17 22 9 12 1003.4 1003.4 0.0
24/02:00pm 22.0 21.3 16.3 70 3.5 SSW 15 20 8 11 1003.8 1003.8 0.0
24/01:30pm 21.5 20.0 15.3 68 3.7 SW 17 22 9 12 1004.2 1004.2 0.0
24/01:00pm 23.2 22.0 15.0 60 4.9 SSW 15 20 8 11 1004.1 1004.1 0.0
24/12:30pm 24.1 24.5 15.3 58 5.3 NNW 7 13 4 7 1004.3 1004.3 0.0
24/12:00pm 22.7 22.8 14.5 60 4.8 NE 7 17 4 9 1004.4 1004.4 0.0
24/11:30am 21.9 22.2 14.5 63 4.3 NNW 6 13 3 7 1004.9 1004.9 0.0
24/11:00am 21.1 21.4 15.0 68 3.6 NE 7 15 4 8 1005.3 1005.3 0.0
24/10:30am 20.6 20.4 14.7 69 3.5 NE 9 15 5 8 1005.5 1005.5 0.0
24/10:00am 19.6 19.9 15.0 75 2.7 NE 7 13 4 7 1005.8 1005.8 0.0
24/09:30am 19.0 19.3 14.9 77 2.4 NNE 7 13 4 7 1005.9 1005.9 0.0
24/09:00am 18.6 18.8 14.7 78 2.3 ENE 7 13 4 7 1005.9 1005.9 0.0
24/08:30am 18.9 19.3 15.2 79 2.2 ENE 7 15 4 8 1005.8 1005.8 0.0
24/08:00am 17.8 18.0 14.3 80 2.0 E 6 9 3 5 1005.7 1005.7 0.0
24/07:30am 17.3 17.4 14.0 81 1.9 ENE 6 9 3 5 1005.8 1005.8 0.0
24/07:00am 17.1 17.6 14.0 82 1.8 ENE 4 6 2 3 1005.8 1005.8 0.0
24/06:30am 16.7 17.1 13.8 83 1.6 ENE 4 6 2 3 1005.6 1005.6 0.0
24/06:00am 16.2 16.9 13.5 84 1.5 ENE 2 4 1 2 1005.6 1005.6 0.0
24/05:30am 16.0 17.0 13.3 84 1.5 CALM 0 0 0 0 1005.8 1005.8 0.0
24/05:00am 16.1 16.4 13.4 84 1.5 SE 4 6 2 3 1005.6 1005.6 0.0
24/04:30am 16.1 16.5 13.6 85 1.4 SE 4 4 2 2 1005.7 1005.7 0.0
24/04:00am 15.9 16.3 13.7 87 1.2 SE 4 6 2 3 1006.0 1006.0 0.0
24/03:30am 15.4 15.7 13.4 88 1.1 S 4 7 2 4 1006.1 1006.1 0.0
24/03:00am 14.3 15.0 12.3 88 1.1 CALM 0 2 0 1 1006.5 1006.5 0.0
24/02:30am 13.6 14.1 11.7 88 1.0 CALM 0 0 0 0 1006.7 1006.7 0.0
24/02:00am 13.8 14.4 11.8 88 1.1 CALM 0 0 0 0 1007.1 1007.1 0.0
24/01:30am 13.1 13.5 11.2 88 1.0 CALM 0 0 0 0 1007.6 1007.6 0.0
24/01:00am 11.9 11.8 9.6 86 1.2 CALM 0 0 0 0 1008.0 1008.0 0.0
24/12:30am 12.8 12.9 10.3 85 1.3 CALM 0 0 0 0 1008.2 1008.2 0.0
24/12:00am 13.0 12.0 10.2 83 1.4 S 6 7 3 4 1008.2 1008.2 0.0
 
Date/Time
EDT
Temp
°C
App
Temp
°C
Dew
Point
Rel
Hum
%
Delta-T
°C
Wind Press
QNH
hPa
Press
MSL
hPa
Rain
since 9 am
mm
Dir
 
Spd
km/h
Gust
km/h
Spd
kts
Gust
kts
23/11:30pm 13.0 12.6 9.8 81 1.6 SSE 2 4 1 2 1008.7 1008.7 0.0
23/11:00pm 14.3 13.7 10.5 78 2.0 SSE 4 4 2 2 1008.9 1008.9 0.0
23/10:30pm 14.7 14.2 10.7 77 2.1 SSE 4 6 2 3 1009.0 1009.0 0.0
23/10:00pm 14.9 14.4 10.7 76 2.2 SSE 4 7 2 4 1009.3 1009.3 0.0
23/09:30pm 15.7 15.0 11.3 75 2.4 SSE 6 7 3 4 1009.3 1009.3 0.0
23/09:00pm 16.7 16.1 12.3 75 2.4 S 7 13 4 7 1009.1 1009.1 0.0
23/08:30pm 17.1 16.2 12.6 75 2.5 S 9 15 5 8 1009.2 1009.2 0.0
23/08:00pm 17.7 15.6 12.4 71 2.9 SSW 15 24 8 13 1008.8 1008.8 0.0
23/07:30pm 18.1 15.7 12.5 70 3.1 SSW 17 24 9 13 1008.6 1008.6 0.0
23/07:00pm 18.8 15.9 12.3 66 3.6 SSW 19 30 10 16 1008.3 1008.3 0.0
23/06:30pm 18.9 16.0 12.4 66 3.6 S 19 28 10 15 1007.8 1007.8 0.0
23/06:00pm 19.1 15.7 12.6 66 3.7 SSW 22 32 12 17 1007.6 1007.6 0.0
23/05:30pm 19.7 17.0 12.9 65 3.8 SSW 19 32 10 17 1007.4 1007.4 0.0
23/05:00pm 19.6 16.4 13.1 66 3.7 SSW 22 33 12 18 1007.2 1007.2 0.0
23/04:30pm 20.2 17.5 12.9 63 4.1 SSW 19 28 10 15 1007.1 1007.1 0.0
23/04:00pm 20.2 17.6 13.9 67 3.6 SSW 20 33 11 18 1006.9 1006.9 0.0
23/03:30pm 20.1 17.0 13.3 65 3.9 SSW 22 32 12 17 1006.9 1006.9 0.0
23/03:00pm 19.1 16.2 13.9 72 3.0 SSW 22 30 12 16 1007.2 1007.2 0.0
23/02:30pm 19.6 17.0 14.8 74 2.8 SSW 22 33 12 18 1006.9 1006.9 0.0
23/02:00pm 20.1 18.0 15.1 73 3.0 SSW 20 32 11 17 1006.8 1006.8 0.0
23/01:30pm 21.8 19.8 16.5 72 3.2 SSW 22 37 12 20 1007.0 1007.0 0.0
23/01:00pm 20.9 17.8 15.7 72 3.1 SSW 26 39 14 21 1007.1 1007.1 0.0
23/12:30pm 20.9 18.7 15.9 73 3.0 SSW 22 32 12 17 1006.8 1006.8 0.0
23/12:00pm 20.8 18.3 16.2 75 2.8 SW 24 33 13 18 1006.8 1006.8 0.0
23/11:30am 20.1 17.7 15.5 75 2.7 SSW 22 32 12 17 1006.6 1006.6 0.0
23/11:00am 20.0 17.4 15.0 73 2.9 SSW 22 32 12 17 1006.6 1006.6 0.0
23/10:30am 20.2 17.3 14.1 68 3.5 SSW 22 33 12 18 1006.3 1006.3 0.0
23/10:00am 20.4 17.7 13.6 65 3.9 SSW 20 30 11 16 1006.3 1006.3 0.0
23/09:30am 20.6 17.3 12.8 61 4.4 SSW 22 33 12 18 1006.0 1006.0 0.0
23/09:00am 21.0 18.7 14.2 65 4.0 SSW 19 33 10 18 1005.8 1005.8 0.0
23/08:30am 21.4 21.3 17.0 76 2.7 SW 13 19 7 10 1005.2 1005.2 0.0
23/08:00am 20.6 21.9 18.5 88 1.3 SW 9 15 5 8 1004.5 1004.5 0.0
23/07:30am 19.8 22.7 18.1 90 1.1 CALM 0 6 0 3 1004.0 1004.0 0.0

Other Formats:

Comma delimited format used in spreadsheet applications
http://www.bom.gov.au/fwo/IDV60801/IDV60801.94898.axf

JavaScript Object Notation format (JSON) in row-major order
http://www.bom.gov.au/fwo/IDV60801/IDV60801.94898.json